createdAt,value
2019-06-08T00:00:06.261Z,56.32
2019-06-08T00:01:06.267Z,55.92
2019-06-08T00:02:06.238Z,55.99
2019-06-08T00:03:06.233Z,55.90
2019-06-08T00:04:06.224Z,55.90
2019-06-08T00:05:06.205Z,56.10
2019-06-08T00:06:06.220Z,56.02
2019-06-08T00:07:06.177Z,56.40
2019-06-08T00:08:06.169Z,56.60
2019-06-08T00:09:06.156Z,56.23
2019-06-08T00:10:06.146Z,56.32
2019-06-08T00:11:06.160Z,56.52
2019-06-08T00:12:06.125Z,56.52
2019-06-08T00:13:06.207Z,56.32
2019-06-08T00:14:06.799Z,56.32
2019-06-08T00:15:06.236Z,56.52
2019-06-08T00:16:06.078Z,56.32
2019-06-08T00:17:06.176Z,57.03
2019-06-08T00:18:06.224Z,56.73
2019-06-08T00:19:06.058Z,57.06
2019-06-08T00:20:06.036Z,56.96
2019-06-08T00:21:06.027Z,56.63
2019-06-08T00:22:06.036Z,57.06
2019-06-08T00:23:06.001Z,56.85
2019-06-08T00:24:05.990Z,57.16
2019-06-08T00:25:05.988Z,57.06
2019-06-08T00:26:05.970Z,57.36
2019-06-08T00:27:05.976Z,57.18
2019-06-08T00:28:05.956Z,57.26
2019-06-08T00:29:05.933Z,57.26
2019-06-08T00:30:05.923Z,57.18
2019-06-08T00:31:05.909Z,57.26
2019-06-08T00:32:05.938Z,56.85
2019-06-08T00:33:05.892Z,57.06
2019-06-08T00:34:05.878Z,57.46
2019-06-08T00:35:05.870Z,57.36
2019-06-08T00:36:05.858Z,57.59
2019-06-08T00:37:05.884Z,57.49
2019-06-08T00:38:05.839Z,57.59
2019-06-08T00:39:05.825Z,57.26
2019-06-08T00:40:05.826Z,57.39
2019-06-08T00:41:05.803Z,57.49
2019-06-08T00:42:05.792Z,57.29
2019-06-08T00:43:05.799Z,57.69
2019-06-08T00:44:05.774Z,57.29
2019-06-08T00:45:05.762Z,57.29
2019-06-08T00:46:05.745Z,57.39
2019-06-08T00:47:05.767Z,57.39
2019-06-08T00:48:05.745Z,57.29
2019-06-08T00:49:05.714Z,57.18
2019-06-08T00:50:05.701Z,57.29
2019-06-08T00:51:05.688Z,57.39
2019-06-08T00:52:05.677Z,56.98
2019-06-08T00:53:05.810Z,56.88
2019-06-08T00:54:05.660Z,57.29
2019-06-08T00:55:05.647Z,57.39
2019-06-08T00:56:05.632Z,56.68
2019-06-08T00:57:05.632Z,57.01
2019-06-08T00:58:05.638Z,56.81
2019-06-08T00:59:05.647Z,57.29
2019-06-08T01:00:10.707Z,57.09
2019-06-08T01:01:06.576Z,57.21
2019-06-08T01:02:05.566Z,57.39
2019-06-08T01:03:05.685Z,57.21
2019-06-08T01:04:05.563Z,57.21
2019-06-08T01:05:05.550Z,57.18
2019-06-08T01:06:05.559Z,56.98
2019-06-08T01:07:05.508Z,56.88
2019-06-08T01:08:05.554Z,56.88
2019-06-08T01:09:05.498Z,57.11
2019-06-08T01:10:05.476Z,57.01
2019-06-08T01:11:05.464Z,57.01
2019-06-08T01:12:05.455Z,56.81
2019-06-08T01:13:05.511Z,57.01
2019-06-08T01:14:05.431Z,56.91
2019-06-08T01:15:05.443Z,56.91
2019-06-08T01:16:05.409Z,57.11
2019-06-08T01:17:05.411Z,56.91
2019-06-08T01:18:05.417Z,57.11
2019-06-08T01:19:05.380Z,57.11
2019-06-08T01:20:05.383Z,57.11
2019-06-08T01:21:05.352Z,56.71
2019-06-08T01:22:05.360Z,57.42
2019-06-08T01:23:05.366Z,57.11
2019-06-08T01:24:05.321Z,57.01
2019-06-08T01:25:05.310Z,57.11
2019-06-08T01:26:05.297Z,57.14
2019-06-08T01:27:05.316Z,57.21
2019-06-08T01:28:05.285Z,57.42
2019-06-08T01:29:05.300Z,57.31
2019-06-08T01:30:05.255Z,57.01
2019-06-08T01:31:05.243Z,57.21
2019-06-08T01:32:05.239Z,57.54
2019-06-08T01:33:05.218Z,57.31
2019-06-08T01:34:05.239Z,57.21
2019-06-08T01:35:05.210Z,57.11
2019-06-08T01:36:05.196Z,57.21
2019-06-08T01:37:05.189Z,56.84
2019-06-08T01:38:05.183Z,57.31
2019-06-08T01:39:05.252Z,57.14
2019-06-08T01:40:05.139Z,57.52
2019-06-08T01:41:05.175Z,56.71
2019-06-08T01:42:05.137Z,56.61
2019-06-08T01:43:05.113Z,56.71
2019-06-08T01:44:05.098Z,56.33
2019-06-08T01:45:05.110Z,56.51
2019-06-08T01:46:05.072Z,56.53
2019-06-08T01:47:05.069Z,56.13
2019-06-08T01:48:18.743Z,56.10
2019-06-08T01:49:06.069Z,56.23
2019-06-08T01:50:05.035Z,56.00
2019-06-08T01:51:05.017Z,56.10
2019-06-08T01:52:05.015Z,56.30
2019-06-08T01:53:04.994Z,56.30
2019-06-08T01:54:05.015Z,56.40
2019-06-08T01:55:04.983Z,55.80
2019-06-08T01:56:04.968Z,56.20
2019-06-08T01:57:04.956Z,56.13
2019-06-08T01:58:04.939Z,55.40
2019-06-08T01:59:04.956Z,55.49
2019-06-08T02:00:29.290Z,55.11
2019-06-08T02:01:05.904Z,54.82
2019-06-08T02:02:04.894Z,55.09
2019-06-08T02:03:04.884Z,55.49
2019-06-08T02:04:04.881Z,55.42
2019-06-08T02:05:04.891Z,55.52
2019-06-08T02:06:04.859Z,55.40
2019-06-08T02:07:04.839Z,55.42
2019-06-08T02:08:04.833Z,55.32
2019-06-08T02:09:04.814Z,54.99
2019-06-08T02:10:04.834Z,55.42
2019-06-08T02:11:04.792Z,55.42
2019-06-08T02:12:04.779Z,55.32
2019-06-08T02:13:08.420Z,54.71
2019-06-08T02:14:04.757Z,54.71
2019-06-08T02:15:04.772Z,55.19
2019-06-08T02:16:04.736Z,55.22
2019-06-08T02:17:04.730Z,55.22
2019-06-08T02:18:04.744Z,55.09
2019-06-08T02:19:04.716Z,54.79
2019-06-08T02:20:04.752Z,54.89
2019-06-08T02:21:04.684Z,55.11
2019-06-08T02:22:04.673Z,54.99
2019-06-08T02:23:04.660Z,55.19
2019-06-08T02:24:04.648Z,54.89
2019-06-08T02:25:04.659Z,55.40
2019-06-08T02:26:04.672Z,55.40
2019-06-08T02:27:04.616Z,55.40
2019-06-08T02:28:04.601Z,55.49
2019-06-08T02:29:04.601Z,55.80
2019-06-08T02:30:04.610Z,56.00
2019-06-08T02:31:04.575Z,56.10
2019-06-08T02:32:04.558Z,56.10
2019-06-08T02:33:04.554Z,56.00
2019-06-08T02:34:04.538Z,56.00
2019-06-08T02:35:04.557Z,56.33
2019-06-08T02:36:04.544Z,56.33
2019-06-08T02:37:04.502Z,56.00
2019-06-08T02:38:04.490Z,56.33
2019-06-08T02:39:04.481Z,56.10
2019-06-08T02:40:04.472Z,56.40
2019-06-08T02:41:04.491Z,56.40
2019-06-08T02:42:04.445Z,56.23
2019-06-08T02:43:04.438Z,56.13
2019-06-08T02:44:04.422Z,56.10
2019-06-08T02:45:04.412Z,55.62
2019-06-08T02:46:04.430Z,55.82
2019-06-08T02:47:04.391Z,55.60
2019-06-08T02:48:04.378Z,55.69
2019-06-08T02:49:04.893Z,56.00
2019-06-08T02:50:04.355Z,55.49
2019-06-08T02:51:04.372Z,54.89
2019-06-08T02:52:04.346Z,54.82
2019-06-08T02:53:04.321Z,55.29
2019-06-08T02:54:04.312Z,55.19
2019-06-08T02:55:04.298Z,55.11
2019-06-08T02:56:04.316Z,55.02
2019-06-08T02:57:04.288Z,55.40
2019-06-08T02:58:04.266Z,55.29
2019-06-08T02:59:04.254Z,54.99
2019-06-08T03:00:04.251Z,54.99
2019-06-08T03:01:04.287Z,55.29
2019-06-08T03:02:04.221Z,55.29
2019-06-08T03:03:04.225Z,55.22
2019-06-08T03:04:04.210Z,55.22
2019-06-08T03:05:04.184Z,54.51
2019-06-08T03:06:04.202Z,55.09
2019-06-08T03:07:04.163Z,55.22
2019-06-08T03:08:04.167Z,54.89
2019-06-08T03:09:04.148Z,53.50
2019-06-08T03:10:04.144Z,54.11
2019-06-08T03:11:04.162Z,53.67
2019-06-08T03:12:04.117Z,53.19
2019-06-08T03:13:04.098Z,53.88
2019-06-08T03:14:04.089Z,53.78
2019-06-08T03:15:04.077Z,53.67
2019-06-08T03:16:04.068Z,54.38
2019-06-08T03:17:04.090Z,52.79
2019-06-08T03:18:04.041Z,54.31
2019-06-08T03:19:19.851Z,53.50
2019-06-08T03:20:05.019Z,53.30
2019-06-08T03:21:04.014Z,53.07
2019-06-08T03:22:04.023Z,52.97
2019-06-08T03:23:04.011Z,52.99
2019-06-08T03:24:03.981Z,52.87
2019-06-08T03:25:03.977Z,53.27
2019-06-08T03:26:03.959Z,53.30
2019-06-08T03:27:03.999Z,53.17
2019-06-08T03:28:03.940Z,53.38
2019-06-08T03:29:03.921Z,53.17
2019-06-08T03:30:16.497Z,53.19
2019-06-08T03:31:04.956Z,53.09
2019-06-08T03:32:03.928Z,53.17
2019-06-08T03:33:03.887Z,53.40
2019-06-08T03:34:03.889Z,53.47
2019-06-08T03:35:03.853Z,53.40
2019-06-08T03:36:03.841Z,53.67
2019-06-08T03:37:03.833Z,53.40
2019-06-08T03:38:03.870Z,52.89
2019-06-08T03:39:03.808Z,53.30
2019-06-08T03:40:03.802Z,52.99
2019-06-08T03:41:03.787Z,53.30
2019-06-08T03:42:03.780Z,53.19
2019-06-08T03:43:03.796Z,53.40
2019-06-08T03:44:03.757Z,53.19
2019-06-08T03:45:03.754Z,53.50
2019-06-08T03:46:03.734Z,53.40
2019-06-08T03:47:03.724Z,52.79
2019-06-08T03:48:03.734Z,53.30
2019-06-08T03:49:03.748Z,52.89
2019-06-08T03:50:03.683Z,53.70
2019-06-08T03:51:03.692Z,53.09
2019-06-08T03:52:03.662Z,53.12
2019-06-08T03:53:03.680Z,53.30
2019-06-08T03:54:03.660Z,53.30
2019-06-08T03:55:03.626Z,52.99
2019-06-08T03:56:03.615Z,53.30
2019-06-08T03:57:03.610Z,53.19
2019-06-08T03:58:03.639Z,53.40
2019-06-08T03:59:03.585Z,53.19
2019-06-08T04:00:12.562Z,53.40
2019-06-08T04:01:04.563Z,53.19
2019-06-08T04:02:03.553Z,53.22
2019-06-08T04:03:03.538Z,52.99
2019-06-08T04:04:03.566Z,53.60
2019-06-08T04:05:03.518Z,53.70
2019-06-08T04:06:03.503Z,53.52
2019-06-08T04:07:03.491Z,53.93
2019-06-08T04:08:03.493Z,54.23
2019-06-08T04:09:03.509Z,53.60
2019-06-08T04:10:03.463Z,54.11
2019-06-08T04:11:03.449Z,54.11
2019-06-08T04:12:03.435Z,54.13
2019-06-08T04:13:03.427Z,54.64
2019-06-08T04:14:03.474Z,54.23
2019-06-08T04:15:03.418Z,54.91
2019-06-08T04:16:03.392Z,54.61
2019-06-08T04:17:03.410Z,54.71
2019-06-08T04:18:03.374Z,54.82
2019-06-08T04:19:03.398Z,55.15
2019-06-08T04:20:11.006Z,54.94
2019-06-08T04:21:04.343Z,55.02
2019-06-08T04:22:03.326Z,55.24
2019-06-08T04:23:03.318Z,55.24
2019-06-08T04:24:03.425Z,55.55
2019-06-08T04:25:03.304Z,55.37
2019-06-08T04:26:03.308Z,55.24
2019-06-08T04:27:03.276Z,55.04
2019-06-08T04:28:03.261Z,55.15
2019-06-08T04:29:03.259Z,55.47
2019-06-08T04:30:03.278Z,55.35
2019-06-08T04:31:03.225Z,55.15
2019-06-08T04:32:03.221Z,55.44
2019-06-08T04:33:03.212Z,55.35
2019-06-08T04:34:03.195Z,55.37
2019-06-08T04:35:03.207Z,55.47
2019-06-08T04:36:03.170Z,56.05
2019-06-08T04:37:03.190Z,56.15
2019-06-08T04:38:03.145Z,56.28
2019-06-08T04:39:03.136Z,55.98
2019-06-08T04:40:03.151Z,56.28
2019-06-08T04:41:03.117Z,56.08
2019-06-08T04:42:03.101Z,56.59
2019-06-08T04:43:03.109Z,56.18
2019-06-08T04:44:03.089Z,56.59
2019-06-08T04:45:03.092Z,56.48
2019-06-08T04:46:03.068Z,56.48
2019-06-08T04:47:03.056Z,56.59
2019-06-08T04:48:03.043Z,56.48
2019-06-08T04:49:03.027Z,56.48
2019-06-08T04:50:21.076Z,56.69
2019-06-08T04:51:04.008Z,56.89
2019-06-08T04:52:02.996Z,56.08
2019-06-08T04:53:02.983Z,56.28
2019-06-08T04:54:02.977Z,56.59
2019-06-08T04:55:02.996Z,56.59
2019-06-08T04:56:02.969Z,56.48
2019-06-08T04:57:02.937Z,56.48
2019-06-08T04:58:02.920Z,56.71
2019-06-08T04:59:02.919Z,56.92
2019-06-08T05:00:12.237Z,57.22
2019-06-08T05:01:03.915Z,56.89
2019-06-08T05:02:02.880Z,57.02
2019-06-08T05:03:02.868Z,57.02
2019-06-08T05:04:02.864Z,57.02
2019-06-08T05:05:02.898Z,56.99
2019-06-08T05:06:02.852Z,56.71
2019-06-08T05:07:02.823Z,56.61
2019-06-08T05:08:02.806Z,56.79
2019-06-08T05:09:02.816Z,56.89
2019-06-08T05:10:02.790Z,57.20
2019-06-08T05:11:02.798Z,56.38
2019-06-08T05:12:02.768Z,56.71
2019-06-08T05:13:02.751Z,56.41
2019-06-08T05:14:02.741Z,56.61
2019-06-08T05:15:02.726Z,56.92
2019-06-08T05:16:02.739Z,57.12
2019-06-08T05:17:02.710Z,56.71
2019-06-08T05:18:02.701Z,56.82
2019-06-08T05:19:02.680Z,56.92
2019-06-08T05:20:02.672Z,57.12
2019-06-08T05:21:02.699Z,56.82
2019-06-08T05:22:02.651Z,56.61
2019-06-08T05:23:02.639Z,57.02
2019-06-08T05:24:02.632Z,56.92
2019-06-08T05:25:02.624Z,56.51
2019-06-08T05:26:02.636Z,56.61
2019-06-08T05:27:02.636Z,56.10
2019-06-08T05:28:02.591Z,56.10
2019-06-08T05:29:02.579Z,56.21
2019-06-08T05:30:08.419Z,56.41
2019-06-08T05:31:03.571Z,56.21
2019-06-08T05:32:02.533Z,56.51
2019-06-08T05:33:02.527Z,56.48
2019-06-08T05:34:02.511Z,56.21
2019-06-08T05:35:02.527Z,56.41
2019-06-08T05:36:02.527Z,56.41
2019-06-08T05:37:02.479Z,56.21
2019-06-08T05:38:02.469Z,56.51
2019-06-08T05:39:02.478Z,56.31
2019-06-08T05:40:02.446Z,56.31
2019-06-08T05:41:02.466Z,56.21
2019-06-08T05:42:02.452Z,56.28
2019-06-08T05:43:02.410Z,56.31
2019-06-08T05:44:02.423Z,56.21
2019-06-08T05:45:02.427Z,56.51
2019-06-08T05:46:02.380Z,56.31
2019-06-08T05:47:02.389Z,56.41
2019-06-08T05:48:02.352Z,56.38
2019-06-08T05:49:02.356Z,56.41
2019-06-08T05:50:02.331Z,56.10
2019-06-08T05:51:04.219Z,56.21
2019-06-08T05:52:02.336Z,56.01
2019-06-08T05:53:02.297Z,55.80
2019-06-08T05:54:03.083Z,55.57
2019-06-08T05:55:02.278Z,54.99
2019-06-08T05:56:02.264Z,55.19
2019-06-08T05:57:02.280Z,55.30
2019-06-08T05:58:02.250Z,54.99
2019-06-08T05:59:02.245Z,54.89
2019-06-08T06:00:08.869Z,55.10
2019-06-08T06:01:03.208Z,55.10
2019-06-08T06:02:02.224Z,55.50
2019-06-08T06:03:02.208Z,55.19
2019-06-08T06:04:02.178Z,54.89
2019-06-08T06:05:02.169Z,55.10
2019-06-08T06:06:02.151Z,55.10
2019-06-08T06:07:02.168Z,55.40
2019-06-08T06:08:02.175Z,55.27
2019-06-08T06:09:02.116Z,55.50
2019-06-08T06:10:02.124Z,55.40
2019-06-08T06:11:02.106Z,56.21
2019-06-08T06:12:02.084Z,55.19
2019-06-08T06:13:02.109Z,55.63
2019-06-08T06:14:02.060Z,55.32
2019-06-08T06:15:02.048Z,55.43
2019-06-08T06:16:02.040Z,55.12
2019-06-08T06:17:02.038Z,54.89
2019-06-08T06:18:02.037Z,54.89
2019-06-08T06:19:02.019Z,55.40
2019-06-08T06:20:01.996Z,55.70
2019-06-08T06:21:10.840Z,55.40
2019-06-08T06:22:03.001Z,55.50
2019-06-08T06:23:01.983Z,55.40
2019-06-08T06:24:01.957Z,55.30
2019-06-08T06:25:01.949Z,55.70
2019-06-08T06:26:01.924Z,55.50
2019-06-08T06:27:01.912Z,55.40
2019-06-08T06:28:05.280Z,55.22
2019-06-08T06:29:01.900Z,55.40
2019-06-08T06:30:02.044Z,55.19
2019-06-08T06:31:01.886Z,55.10
2019-06-08T06:32:01.855Z,55.60
2019-06-08T06:33:01.873Z,55.19
2019-06-08T06:34:01.856Z,55.70
2019-06-08T06:35:01.840Z,54.99
2019-06-08T06:36:01.809Z,56.10
2019-06-08T06:37:01.819Z,55.30
2019-06-08T06:38:01.828Z,55.50
2019-06-08T06:39:01.829Z,55.40
2019-06-08T06:40:01.768Z,55.50
2019-06-08T06:41:01.773Z,55.19
2019-06-08T06:42:01.757Z,55.19
2019-06-08T06:43:01.731Z,55.40
2019-06-08T06:44:01.743Z,55.02
2019-06-08T06:45:01.738Z,55.19
2019-06-08T06:46:01.705Z,55.43
2019-06-08T06:47:01.698Z,55.32
2019-06-08T06:48:01.674Z,55.22
2019-06-08T06:49:01.689Z,55.83
2019-06-08T06:50:01.674Z,55.12
2019-06-08T06:51:01.642Z,54.92
2019-06-08T06:52:01.626Z,55.32
2019-06-08T06:53:01.618Z,55.19
2019-06-08T06:54:01.628Z,55.02
2019-06-08T06:55:01.597Z,55.63
2019-06-08T06:56:01.581Z,55.02
2019-06-08T06:57:01.640Z,55.22
2019-06-08T06:58:01.637Z,55.02
2019-06-08T06:59:01.598Z,55.32
2019-06-08T07:00:01.543Z,55.12
2019-06-08T07:01:01.528Z,55.32
2019-06-08T07:02:01.528Z,55.30
2019-06-08T07:03:01.590Z,55.43
2019-06-08T07:04:01.532Z,55.10
2019-06-08T07:05:01.561Z,54.92
2019-06-08T07:06:01.470Z,55.02
2019-06-08T07:07:01.465Z,55.73
2019-06-08T07:08:01.448Z,55.52
2019-06-08T07:09:01.459Z,55.22
2019-06-08T07:10:01.461Z,55.40
2019-06-08T07:11:01.410Z,55.32
2019-06-08T07:12:01.403Z,55.32
2019-06-08T07:13:01.390Z,55.32
2019-06-08T07:14:01.387Z,55.30
2019-06-08T07:15:01.392Z,55.30
2019-06-08T07:16:17.261Z,55.43
2019-06-08T07:17:02.343Z,55.83
2019-06-08T07:18:01.336Z,55.22
2019-06-08T07:19:01.331Z,55.73
2019-06-08T07:20:01.329Z,55.22
2019-06-08T07:21:01.300Z,54.82
2019-06-08T07:22:01.281Z,55.52
2019-06-08T07:23:01.296Z,55.02
2019-06-08T07:24:01.263Z,55.12
2019-06-08T07:25:01.284Z,54.92
2019-06-08T07:26:01.240Z,55.83
2019-06-08T07:27:01.235Z,55.63
2019-06-08T07:28:01.226Z,55.52
2019-06-08T07:29:01.240Z,55.32
2019-06-08T07:30:01.228Z,56.23
2019-06-08T07:31:01.191Z,55.93
2019-06-08T07:32:01.169Z,55.52
2019-06-08T07:33:01.161Z,55.60
2019-06-08T07:34:01.147Z,55.43
2019-06-08T07:35:01.162Z,55.32
2019-06-08T07:36:01.123Z,56.34
2019-06-08T07:37:01.111Z,55.12
2019-06-08T07:38:01.102Z,55.30
2019-06-08T07:39:01.092Z,55.30
2019-06-08T07:40:01.099Z,55.70
2019-06-08T07:41:01.843Z,55.40
2019-06-08T07:42:01.060Z,55.40
2019-06-08T07:43:01.047Z,55.02
2019-06-08T07:44:01.036Z,55.22
2019-06-08T07:45:01.045Z,55.60
2019-06-08T07:46:01.030Z,54.99
2019-06-08T07:47:00.998Z,55.52
2019-06-08T07:48:00.987Z,55.83
2019-06-08T07:49:00.975Z,55.43
2019-06-08T07:50:04.493Z,56.34
2019-06-08T07:51:00.972Z,55.32
2019-06-08T07:52:09.710Z,55.43
2019-06-08T07:53:01.928Z,55.83
2019-06-08T07:54:00.924Z,55.40
2019-06-08T07:55:00.988Z,55.43
2019-06-08T07:56:00.932Z,55.19
2019-06-08T07:57:00.888Z,54.92
2019-06-08T07:58:00.874Z,55.73
2019-06-08T07:59:00.865Z,55.93
2019-06-08T08:00:08.792Z,56.13
2019-06-08T08:01:07.725Z,56.10
2019-06-08T08:02:01.833Z,56.31
2019-06-08T08:03:00.817Z,56.44
2019-06-08T08:04:00.809Z,56.41
2019-06-08T08:05:00.799Z,56.34
2019-06-08T08:06:00.794Z,56.44
2019-06-08T08:07:00.818Z,56.54
2019-06-08T08:08:00.762Z,56.64
2019-06-08T08:09:00.750Z,56.34
2019-06-08T08:10:00.758Z,56.44
2019-06-08T08:11:00.734Z,56.23
2019-06-08T08:12:00.738Z,56.23
2019-06-08T08:13:00.701Z,56.44
2019-06-08T08:14:00.697Z,56.74
2019-06-08T08:15:00.687Z,56.64
2019-06-08T08:16:00.839Z,56.23
2019-06-08T08:17:00.677Z,56.23
2019-06-08T08:18:00.658Z,56.54
2019-06-08T08:19:00.640Z,56.64
2019-06-08T08:20:00.626Z,56.51
2019-06-08T08:21:09.299Z,56.44
2019-06-08T08:22:18.573Z,56.23
2019-06-08T08:23:05.813Z,56.64
2019-06-08T08:24:01.867Z,56.64
2019-06-08T08:25:04.618Z,56.51
2019-06-08T08:26:01.913Z,56.64
2019-06-08T08:27:03.253Z,56.44
2019-06-08T08:28:01.106Z,56.44
2019-06-08T08:29:03.029Z,56.54
2019-06-08T08:30:01.994Z,56.74
2019-06-08T08:31:01.869Z,56.84
2019-06-08T08:32:01.932Z,56.95
2019-06-08T08:33:03.011Z,56.84
2019-06-08T08:34:05.624Z,57.15
2019-06-08T08:35:02.994Z,56.92
2019-06-08T08:36:01.857Z,57.15
2019-06-08T08:37:06.061Z,57.15
2019-06-08T08:38:04.459Z,57.35
2019-06-08T08:39:02.332Z,57.04
2019-06-08T08:40:01.523Z,57.55
2019-06-08T08:41:07.173Z,57.24
2019-06-08T08:42:04.796Z,57.24
2019-06-08T08:43:01.616Z,57.15
2019-06-08T08:44:04.175Z,57.32
2019-06-08T08:45:05.051Z,57.12
2019-06-08T08:46:01.983Z,57.32
2019-06-08T08:47:02.395Z,57.42
2019-06-08T08:48:20.341Z,57.62
2019-06-08T08:49:09.288Z,57.12
2019-06-08T08:50:02.177Z,57.22
2019-06-08T08:51:03.249Z,57.53
2019-06-08T08:52:01.723Z,57.04
2019-06-08T08:53:01.246Z,57.32
2019-06-08T08:54:04.779Z,57.22
2019-06-08T08:55:02.263Z,57.22
2019-06-08T08:56:02.062Z,57.02
2019-06-08T08:57:03.428Z,56.92
2019-06-08T08:58:02.037Z,57.12
2019-06-08T08:59:01.657Z,57.12
2019-06-08T09:00:04.310Z,56.95
2019-06-08T09:01:03.156Z,56.74
2019-06-08T09:02:02.782Z,56.95
2019-06-08T09:03:24.316Z,57.22
2019-06-08T09:04:04.831Z,57.12
2019-06-08T09:05:03.302Z,56.82
2019-06-08T09:06:03.603Z,57.15
2019-06-08T09:07:05.596Z,56.61
2019-06-08T09:08:02.612Z,56.61
2019-06-08T09:09:02.449Z,56.21
2019-06-08T09:10:02.316Z,56.10
2019-06-08T09:11:03.238Z,56.10
2019-06-08T09:12:03.059Z,56.51
2019-06-08T09:13:02.982Z,56.31
2019-06-08T09:14:05.192Z,56.31
2019-06-08T09:15:02.651Z,56.31
2019-06-08T09:16:02.347Z,56.61
2019-06-08T09:17:02.090Z,56.31
2019-06-08T09:18:03.350Z,56.21
2019-06-08T09:19:02.874Z,56.51
2019-06-08T09:20:03.239Z,56.51
2019-06-08T09:21:02.361Z,56.08
2019-06-08T09:22:02.295Z,56.28
2019-06-08T09:23:09.002Z,55.47
2019-06-08T09:24:03.869Z,55.44
2019-06-08T09:25:03.201Z,54.97
2019-06-08T09:26:07.637Z,55.07
2019-06-08T09:27:03.939Z,55.47
2019-06-08T09:28:02.859Z,54.44
2019-06-08T09:29:02.696Z,54.53
2019-06-08T09:30:03.355Z,55.04
2019-06-08T09:31:02.286Z,54.94
2019-06-08T09:32:01.851Z,55.35
2019-06-08T09:33:01.975Z,55.04
2019-06-08T09:34:09.189Z,54.94
2019-06-08T09:35:04.357Z,54.94
2019-06-08T09:36:01.568Z,55.11
2019-06-08T09:37:02.653Z,54.71
2019-06-08T09:38:02.923Z,55.24
2019-06-08T09:39:02.754Z,54.51
2019-06-08T09:40:00.847Z,54.74
2019-06-08T09:41:02.048Z,55.11
2019-06-08T09:42:01.939Z,55.02
2019-06-08T09:43:06.300Z,55.11
2019-06-08T09:44:03.756Z,55.11
2019-06-08T09:45:02.121Z,54.51
2019-06-08T09:46:02.080Z,54.61
2019-06-08T09:47:06.544Z,54.61
2019-06-08T09:48:03.979Z,54.61
2019-06-08T09:49:04.812Z,54.38
2019-06-08T09:50:03.613Z,53.60
2019-06-08T09:51:01.806Z,53.40
2019-06-08T09:52:01.931Z,53.67
2019-06-08T09:53:18.298Z,53.14
2019-06-08T09:54:03.932Z,53.45
2019-06-08T09:55:03.929Z,52.74
2019-06-08T09:56:04.419Z,53.14
2019-06-08T09:57:02.726Z,52.74
2019-06-08T09:58:05.044Z,52.64
2019-06-08T09:59:04.035Z,51.50
2019-06-08T10:00:04.375Z,51.98
2019-06-08T10:01:02.860Z,51.58
2019-06-08T10:02:05.486Z,51.56
2019-06-08T10:03:03.060Z,51.38
2019-06-08T10:04:02.389Z,51.35
2019-06-08T10:05:02.392Z,51.38
2019-06-08T10:06:05.347Z,51.48
2019-06-08T10:07:02.263Z,51.68
2019-06-08T10:08:02.097Z,51.98
2019-06-08T10:09:00.622Z,51.20
2019-06-08T10:10:02.547Z,51.78
2019-06-08T10:11:01.605Z,52.01
2019-06-08T10:12:01.698Z,51.81
2019-06-08T10:13:01.791Z,51.30
2019-06-08T10:14:04.716Z,51.71
2019-06-08T10:15:00.637Z,51.50
2019-06-08T10:16:03.124Z,51.30
2019-06-08T10:17:02.389Z,51.81
2019-06-08T10:18:00.897Z,51.40
2019-06-08T10:19:03.181Z,51.40
2019-06-08T10:20:01.241Z,51.71
2019-06-08T10:21:01.216Z,51.30
2019-06-08T10:21:59.254Z,51.07
2019-06-08T10:23:02.578Z,51.30
2019-06-08T10:24:02.232Z,51.28
2019-06-08T10:25:03.715Z,51.38
2019-06-08T10:26:01.382Z,51.78
2019-06-08T10:26:59.412Z,51.28
2019-06-08T10:28:02.836Z,51.40
2019-06-08T10:29:03.544Z,51.71
2019-06-08T10:30:02.854Z,51.40
2019-06-08T10:31:01.177Z,51.40
2019-06-08T10:31:59.448Z,51.40
2019-06-08T10:33:01.596Z,51.30
2019-06-08T10:34:02.165Z,50.80
2019-06-08T10:35:01.987Z,51.30
2019-06-08T10:36:01.745Z,51.48
2019-06-08T10:37:04.939Z,51.28
2019-06-08T10:38:02.604Z,51.58
2019-06-08T10:39:03.760Z,51.50
2019-06-08T10:40:03.399Z,51.40
2019-06-08T10:41:06.514Z,51.48
2019-06-08T10:42:03.179Z,51.28
2019-06-08T10:43:01.412Z,51.40
2019-06-08T10:43:59.225Z,51.50
2019-06-08T10:45:02.745Z,51.30
2019-06-08T10:46:03.063Z,51.30
2019-06-08T10:47:02.161Z,51.68
2019-06-08T10:48:00.826Z,51.61
2019-06-08T10:48:59.601Z,51.91
2019-06-08T10:50:06.390Z,51.30
2019-06-08T10:51:02.298Z,52.01
2019-06-08T10:52:01.584Z,51.30
2019-06-08T10:53:02.471Z,52.01
2019-06-08T10:54:00.016Z,51.30
2019-06-08T10:55:00.742Z,51.20
2019-06-08T10:55:59.819Z,51.81
2019-06-08T10:57:01.226Z,51.61
2019-06-08T10:58:00.093Z,51.38
2019-06-08T10:59:01.585Z,51.28
2019-06-08T10:59:59.810Z,51.20
2019-06-08T11:01:02.301Z,51.28
2019-06-08T11:02:03.486Z,51.38
2019-06-08T11:03:02.993Z,51.58
2019-06-08T11:04:00.344Z,51.38
2019-06-08T11:05:04.034Z,51.45
2019-06-08T11:06:01.228Z,51.38
2019-06-08T11:07:04.282Z,51.35
2019-06-08T11:08:01.250Z,51.35
2019-06-08T11:09:03.596Z,50.73
2019-06-08T11:10:00.299Z,50.70
2019-06-08T11:11:00.021Z,50.70
2019-06-08T11:12:00.254Z,49.07
2019-06-08T11:13:03.124Z,50.37
2019-06-08T11:14:00.980Z,50.68
2019-06-08T11:14:59.917Z,49.47
2019-06-08T11:16:00.420Z,49.77
2019-06-08T11:16:58.627Z,49.37
2019-06-08T11:18:02.285Z,49.79
2019-06-08T11:19:01.005Z,50.20
2019-06-08T11:20:00.459Z,50.30
2019-06-08T11:21:00.538Z,50.32
2019-06-08T11:22:02.895Z,50.62
2019-06-08T11:23:00.765Z,50.82
2019-06-08T11:24:07.513Z,51.13
2019-06-08T11:25:00.752Z,51.33
2019-06-08T11:25:59.494Z,51.15
2019-06-08T11:27:00.046Z,51.35
2019-06-08T11:27:59.791Z,50.75
2019-06-08T11:28:58.753Z,51.15
2019-06-08T11:29:59.581Z,50.95
2019-06-08T11:30:59.681Z,51.03
2019-06-08T11:31:59.834Z,50.95
2019-06-08T11:32:59.787Z,50.75
2019-06-08T11:33:58.996Z,50.95
2019-06-08T11:34:59.796Z,50.95
2019-06-08T11:36:02.920Z,50.73
2019-06-08T11:37:01.177Z,50.12
2019-06-08T11:38:00.042Z,50.52
2019-06-08T11:38:59.234Z,51.33
2019-06-08T11:39:59.740Z,49.99
2019-06-08T11:41:00.887Z,49.11
2019-06-08T11:42:00.325Z,50.20
2019-06-08T11:42:58.715Z,50.32
2019-06-08T11:44:00.146Z,50.02
2019-06-08T11:44:58.737Z,50.42
2019-06-08T11:45:58.501Z,50.50
2019-06-08T11:46:58.288Z,50.42
2019-06-08T11:47:58.519Z,50.30
2019-06-08T11:49:01.096Z,50.50
2019-06-08T11:50:00.528Z,50.73
2019-06-08T11:50:58.619Z,50.93
2019-06-08T11:51:58.401Z,51.40
2019-06-08T11:53:00.306Z,50.93
2019-06-08T11:53:59.456Z,51.03
2019-06-08T11:55:00.719Z,50.82
2019-06-08T11:55:58.648Z,50.93
2019-06-08T11:56:58.172Z,50.82
2019-06-08T11:57:58.620Z,50.93
2019-06-08T11:58:58.175Z,50.73
2019-06-08T11:59:58.511Z,51.33
2019-06-08T12:01:00.721Z,51.03
2019-06-08T12:01:58.676Z,51.84
2019-06-08T12:02:58.212Z,50.42
2019-06-08T12:03:58.123Z,50.73
2019-06-08T12:04:58.092Z,50.42
2019-06-08T12:05:58.389Z,50.52
2019-06-08T12:06:58.482Z,50.75
2019-06-08T12:07:58.054Z,50.73
2019-06-08T12:09:00.271Z,50.75
2019-06-08T12:09:58.453Z,51.33
2019-06-08T12:11:02.105Z,51.25
2019-06-08T12:11:59.015Z,51.25
2019-06-08T12:12:58.000Z,51.35
2019-06-08T12:13:58.547Z,50.95
2019-06-08T12:14:58.338Z,50.73
2019-06-08T12:15:58.851Z,50.73
2019-06-08T12:16:58.110Z,50.75
2019-06-08T12:17:58.642Z,50.85
2019-06-08T12:18:58.615Z,50.75
2019-06-08T12:19:57.955Z,50.75
2019-06-08T12:20:58.314Z,50.65
2019-06-08T12:21:58.129Z,50.95
2019-06-08T12:22:57.903Z,51.35
2019-06-08T12:23:57.898Z,51.66
2019-06-08T12:24:57.883Z,51.45
2019-06-08T12:25:57.860Z,51.86
2019-06-08T12:27:03.502Z,51.76
2019-06-08T12:27:58.843Z,51.56
2019-06-08T12:28:57.961Z,51.76
2019-06-08T12:29:58.711Z,51.25
2019-06-08T12:31:00.841Z,51.35
2019-06-08T12:32:00.122Z,51.25
2019-06-08T12:32:58.223Z,50.65
2019-06-08T12:33:58.768Z,50.73
2019-06-08T12:34:59.972Z,50.85
2019-06-08T12:35:57.968Z,51.45
2019-06-08T12:36:58.337Z,50.95
2019-06-08T12:37:58.148Z,51.45
2019-06-08T12:38:58.605Z,51.45
2019-06-08T12:39:57.948Z,50.65
2019-06-08T12:40:58.728Z,50.95
2019-06-08T12:41:58.328Z,51.35
2019-06-08T12:42:59.673Z,51.25
2019-06-08T12:43:58.103Z,51.13
2019-06-08T12:44:58.729Z,50.95
2019-06-08T12:45:58.156Z,50.93
2019-06-08T12:46:58.576Z,51.43
2019-06-08T12:47:57.730Z,50.30
2019-06-08T12:48:58.285Z,49.92
2019-06-08T12:49:58.493Z,50.30
2019-06-08T12:50:57.567Z,49.39
2019-06-08T12:51:58.360Z,49.59